createdAt,value
2023-04-08T00:00:50.904Z,5.10
2023-04-08T00:03:19.409Z,5.10
2023-04-08T00:05:47.573Z,5.10
2023-04-08T00:08:15.174Z,5.10
2023-04-08T00:10:43.008Z,5.00
2023-04-08T00:13:10.875Z,4.90
2023-04-08T00:15:38.611Z,4.90
2023-04-08T00:18:07.902Z,4.90
2023-04-08T00:20:36.074Z,4.80
2023-04-08T00:23:04.033Z,4.70
2023-04-08T00:25:32.406Z,4.60
2023-04-08T00:28:00.546Z,4.60
2023-04-08T00:30:28.966Z,4.50
2023-04-08T00:32:57.770Z,4.50
2023-04-08T00:35:25.938Z,4.50
2023-04-08T00:37:53.855Z,4.40
2023-04-08T00:40:21.620Z,4.30
2023-04-08T00:42:49.456Z,4.40
2023-04-08T00:45:18.680Z,4.50
2023-04-08T00:47:47.280Z,4.50
2023-04-08T00:50:15.065Z,4.40
2023-04-08T00:52:42.800Z,4.40
2023-04-08T00:55:11.047Z,4.30
2023-04-08T00:57:38.901Z,4.30
2023-04-08T01:00:09.956Z,4.20
2023-04-08T01:03:16.930Z,4.20
2023-04-08T01:05:59.501Z,4.30
2023-04-08T01:08:32.461Z,4.30
2023-04-08T01:11:10.411Z,4.30
2023-04-08T01:13:45.802Z,4.40
2023-04-08T01:16:19.307Z,4.40
2023-04-08T01:18:52.226Z,4.40
2023-04-08T01:21:24.207Z,4.50
2023-04-08T01:24:29.903Z,4.60
2023-04-08T01:27:01.870Z,4.50
2023-04-08T01:29:31.828Z,4.30
2023-04-08T01:32:02.241Z,4.30
2023-04-08T01:34:32.786Z,4.30
2023-04-08T01:37:04.787Z,4.30
2023-04-08T01:39:35.767Z,4.30
2023-04-08T01:42:04.802Z,4.30
2023-04-08T01:44:33.728Z,4.30
2023-04-08T01:47:04.006Z,4.30
2023-04-08T01:49:33.028Z,4.20
2023-04-08T01:52:04.121Z,4.20
2023-04-08T01:54:32.042Z,4.20
2023-04-08T01:57:01.739Z,4.10
2023-04-08T01:59:36.782Z,4.00
2023-04-08T02:02:09.824Z,4.00
2023-04-08T02:04:37.771Z,3.90
2023-04-08T02:07:06.800Z,4.00
2023-04-08T02:09:34.978Z,3.90
2023-04-08T02:12:04.305Z,3.90
2023-04-08T02:14:32.334Z,3.80
2023-04-08T02:17:18.240Z,3.90
2023-04-08T02:20:08.141Z,3.90
2023-04-08T02:23:00.316Z,4.00
2023-04-08T02:25:34.171Z,4.20
2023-04-08T02:28:10.129Z,4.30
2023-04-08T02:30:48.374Z,4.40
2023-04-08T02:33:23.509Z,4.50
2023-04-08T02:35:57.235Z,4.60
2023-04-08T02:38:29.950Z,4.60
2023-04-08T02:40:58.848Z,4.60
2023-04-08T02:43:31.982Z,4.60
2023-04-08T02:46:03.789Z,4.70
2023-04-08T02:48:32.216Z,4.80
2023-04-08T02:51:00.306Z,4.80
2023-04-08T02:53:28.261Z,4.70
2023-04-08T02:55:56.395Z,4.70
2023-04-08T02:58:24.098Z,4.60
2023-04-08T03:00:52.085Z,4.60
2023-04-08T03:03:20.144Z,4.60
2023-04-08T03:05:47.920Z,4.50
2023-04-08T03:08:15.925Z,4.50
2023-04-08T03:10:43.789Z,4.50
2023-04-08T03:13:11.537Z,4.50
2023-04-08T03:15:39.260Z,4.50
2023-04-08T03:18:07.313Z,4.60
2023-04-08T03:20:35.839Z,4.50
2023-04-08T03:23:03.843Z,4.40
2023-04-08T03:25:31.929Z,4.40
2023-04-08T03:28:00.045Z,4.30
2023-04-08T03:30:27.962Z,4.30
2023-04-08T03:32:55.882Z,4.40
2023-04-08T03:35:24.173Z,4.40
2023-04-08T03:37:52.049Z,4.20
2023-04-08T03:40:20.126Z,4.10
2023-04-08T03:42:47.931Z,4.20
2023-04-08T03:45:15.776Z,4.20
2023-04-08T03:47:43.473Z,4.10
2023-04-08T03:50:12.039Z,4.00
2023-04-08T03:52:39.842Z,4.10
2023-04-08T03:55:08.447Z,4.00
2023-04-08T03:57:36.375Z,4.00
2023-04-08T04:00:06.239Z,3.90
2023-04-08T04:02:40.084Z,3.80
2023-04-08T04:05:08.947Z,3.80
2023-04-08T04:07:36.622Z,3.80
2023-04-08T04:10:05.388Z,3.80
2023-04-08T04:12:33.047Z,3.70
2023-04-08T04:15:00.807Z,3.70
2023-04-08T04:17:28.661Z,3.60
2023-04-08T04:19:56.550Z,3.60
2023-04-08T04:22:24.373Z,3.50
2023-04-08T04:24:52.236Z,3.50
2023-04-08T04:27:20.027Z,3.80
2023-04-08T04:29:48.586Z,3.80
2023-04-08T04:32:16.526Z,3.70
2023-04-08T04:34:44.862Z,3.50
2023-04-08T04:37:12.645Z,3.40
2023-04-08T04:39:40.822Z,3.30
2023-04-08T04:42:08.538Z,3.30
2023-04-08T04:44:36.497Z,3.20
2023-04-08T04:47:04.632Z,3.20
2023-04-08T04:49:32.484Z,3.20
2023-04-08T04:52:00.616Z,3.10
2023-04-08T04:54:28.537Z,3.10
2023-04-08T04:56:56.409Z,3.00
2023-04-08T04:59:24.102Z,3.00
2023-04-08T05:01:51.874Z,3.00
2023-04-08T05:04:19.768Z,2.90
2023-04-08T05:06:47.560Z,3.00
2023-04-08T05:09:15.783Z,2.90
2023-04-08T05:11:43.668Z,3.00
2023-04-08T05:14:11.687Z,3.00
2023-04-08T05:16:39.988Z,3.10
2023-04-08T05:19:07.757Z,3.10
2023-04-08T05:21:36.034Z,3.10
2023-04-08T05:24:04.010Z,3.10
2023-04-08T05:26:31.848Z,3.10
2023-04-08T05:28:59.669Z,3.20
2023-04-08T05:31:27.952Z,3.20
2023-04-08T05:33:55.914Z,3.20
2023-04-08T05:36:23.701Z,3.20
2023-04-08T05:38:52.060Z,3.30
2023-04-08T05:41:19.974Z,3.30
2023-04-08T05:43:47.821Z,3.30
2023-04-08T05:46:15.766Z,3.40
2023-04-08T05:48:43.738Z,3.40
2023-04-08T05:51:17.912Z,3.50
2023-04-08T05:53:48.967Z,3.50
2023-04-08T05:56:16.679Z,3.50
2023-04-08T05:58:44.429Z,3.50
2023-04-08T06:01:12.506Z,3.60
2023-04-08T06:03:40.716Z,3.60
2023-04-08T06:06:12.557Z,3.70
2023-04-08T06:08:41.341Z,4.00
2023-04-08T06:11:09.210Z,4.20
2023-04-08T06:13:38.191Z,4.20
2023-04-08T06:16:20.335Z,4.30
2023-04-08T06:18:49.388Z,4.40
2023-04-08T06:21:17.448Z,4.50
2023-04-08T06:23:45.492Z,4.60
2023-04-08T06:26:13.466Z,4.60
2023-04-08T06:28:41.306Z,4.70
2023-04-08T06:31:09.194Z,4.80
2023-04-08T06:33:36.981Z,4.70
2023-04-08T06:36:08.120Z,4.60
2023-04-08T06:38:36.325Z,4.60
2023-04-08T06:41:08.487Z,4.70
2023-04-08T06:43:38.089Z,4.90
2023-04-08T06:46:06.276Z,5.20
2023-04-08T06:48:34.640Z,5.30
2023-04-08T06:51:02.520Z,5.40
2023-04-08T06:53:32.999Z,5.40
2023-04-08T06:56:01.775Z,5.30
2023-04-08T06:58:30.206Z,5.50
2023-04-08T07:00:59.675Z,5.40
2023-04-08T07:03:28.102Z,5.50
2023-04-08T07:05:55.907Z,5.60
2023-04-08T07:08:24.324Z,5.70
2023-04-08T07:10:54.143Z,5.90
2023-04-08T07:13:22.011Z,6.20
2023-04-08T07:15:49.748Z,7.00
2023-04-08T07:18:17.656Z,8.30
2023-04-08T07:20:45.605Z,9.00
2023-04-08T07:23:13.386Z,9.10
2023-04-08T07:25:41.260Z,8.70
2023-04-08T07:28:08.964Z,8.40
2023-04-08T07:30:36.949Z,8.10
2023-04-08T07:33:04.677Z,8.10
2023-04-08T07:35:33.690Z,8.10
2023-04-08T07:38:01.664Z,8.50
2023-04-08T07:40:30.168Z,8.50
2023-04-08T07:42:57.861Z,8.40
2023-04-08T07:45:25.624Z,8.00
2023-04-08T07:47:59.422Z,7.90
2023-04-08T07:50:27.371Z,8.00
2023-04-08T07:52:56.129Z,8.10
2023-04-08T07:55:23.937Z,8.10
2023-04-08T07:57:52.121Z,8.10
2023-04-08T08:00:21.903Z,8.30
2023-04-08T08:02:49.916Z,8.80
2023-04-08T08:05:17.934Z,8.80
2023-04-08T08:07:45.834Z,8.90
2023-04-08T08:10:13.656Z,9.10
2023-04-08T08:12:42.026Z,9.10
2023-04-08T08:15:11.348Z,9.40
2023-04-08T08:17:39.321Z,9.40
2023-04-08T08:20:09.098Z,9.30
2023-04-08T08:22:47.213Z,9.70
2023-04-08T08:25:26.087Z,9.50
2023-04-08T08:27:55.521Z,9.40
2023-04-08T08:30:23.506Z,9.20
2023-04-08T08:32:52.274Z,8.90
2023-04-08T08:35:20.516Z,9.10
2023-04-08T08:37:48.440Z,9.50
2023-04-08T08:40:16.902Z,9.10
2023-04-08T08:42:54.465Z,9.00
2023-04-08T08:45:22.541Z,9.10
2023-04-08T08:47:51.832Z,9.10
2023-04-08T08:50:20.630Z,9.40
2023-04-08T08:52:53.779Z,9.70
2023-04-08T08:55:41.390Z,9.80
2023-04-08T08:58:10.560Z,9.90
2023-04-08T09:00:45.062Z,9.90
2023-04-08T09:03:29.135Z,9.80
2023-04-08T09:06:02.209Z,9.90
2023-04-08T09:08:38.156Z,10.20
2023-04-08T09:11:19.900Z,10.20
2023-04-08T09:13:49.308Z,10.60
2023-04-08T09:16:20.724Z,10.90
2023-04-08T09:18:49.895Z,11.20
2023-04-08T09:21:23.168Z,11.80
2023-04-08T09:23:54.294Z,12.10
2023-04-08T09:26:25.442Z,12.10
2023-04-08T09:29:18.412Z,12.50
2023-04-08T09:32:02.115Z,12.10
2023-04-08T09:34:32.514Z,11.80
2023-04-08T09:37:00.307Z,11.40
2023-04-08T09:39:28.408Z,11.40
2023-04-08T09:42:02.538Z,11.30
2023-04-08T09:44:34.109Z,11.20
2023-04-08T09:47:28.470Z,11.40
2023-04-08T09:50:06.526Z,11.20
2023-04-08T09:52:57.527Z,10.90
2023-04-08T09:55:32.751Z,10.60
2023-04-08T09:58:17.205Z,10.50
2023-04-08T10:00:55.767Z,10.50
2023-04-08T10:03:58.905Z,10.50
2023-04-08T10:06:31.648Z,10.50
2023-04-08T10:09:02.844Z,10.50
2023-04-08T10:11:32.081Z,10.30
2023-04-08T10:14:01.377Z,10.00
2023-04-08T10:16:30.150Z,10.00
2023-04-08T10:18:58.876Z,9.90
2023-04-08T10:21:51.539Z,9.90
2023-04-08T10:24:24.290Z,10.00
2023-04-08T10:26:53.519Z,9.80
2023-04-08T10:29:30.645Z,9.70
2023-04-08T10:31:59.071Z,10.10
2023-04-08T10:34:28.229Z,10.20
2023-04-08T10:36:59.640Z,10.50
2023-04-08T10:39:32.002Z,10.80
2023-04-08T10:42:02.910Z,10.70
2023-04-08T10:44:30.830Z,10.70
2023-04-08T10:46:58.868Z,10.70
2023-04-08T10:49:35.731Z,10.90
2023-04-08T10:52:09.760Z,11.10
2023-04-08T10:54:38.705Z,11.10
2023-04-08T10:57:07.551Z,11.20
2023-04-08T10:59:35.353Z,11.00
2023-04-08T11:02:04.179Z,11.40
2023-04-08T11:04:32.755Z,11.40
2023-04-08T11:07:05.641Z,11.40
2023-04-08T11:09:35.833Z,11.20
2023-04-08T11:12:05.348Z,11.50
2023-04-08T11:14:33.993Z,11.70
2023-04-08T11:17:02.440Z,12.10
2023-04-08T11:19:30.700Z,12.20
2023-04-08T11:21:59.790Z,12.30
2023-04-08T11:24:28.857Z,12.20
2023-04-08T11:26:57.281Z,12.20
2023-04-08T11:29:25.518Z,12.40
2023-04-08T11:31:53.577Z,12.40
2023-04-08T11:34:25.894Z,12.50
2023-04-08T11:36:53.948Z,12.80
2023-04-08T11:39:24.370Z,13.10
2023-04-08T11:41:53.427Z,12.90
2023-04-08T11:44:30.719Z,12.60
2023-04-08T11:46:58.943Z,12.10
2023-04-08T11:49:26.918Z,12.30
2023-04-08T11:52:00.691Z,12.30
2023-04-08T11:54:33.773Z,12.00
2023-04-08T11:57:03.433Z,12.40
2023-04-08T11:59:31.665Z,12.40
2023-04-08T12:01:59.823Z,12.60
2023-04-08T12:04:27.880Z,12.60
2023-04-08T12:06:58.279Z,12.50
2023-04-08T12:09:27.816Z,12.50
2023-04-08T12:11:56.965Z,12.50
2023-04-08T12:14:27.755Z,12.50
2023-04-08T12:16:56.331Z,12.10
2023-04-08T12:19:24.712Z,11.90
2023-04-08T12:21:52.939Z,11.70
2023-04-08T12:24:21.709Z,11.70
2023-04-08T12:26:52.669Z,11.90
2023-04-08T12:29:20.728Z,12.10
2023-04-08T12:31:48.629Z,12.40
2023-04-08T12:34:17.393Z,12.50
2023-04-08T12:36:45.188Z,12.40
2023-04-08T12:39:12.989Z,12.40
2023-04-08T12:41:41.038Z,12.30
2023-04-08T12:44:08.877Z,12.20
2023-04-08T12:46:36.786Z,12.40
2023-04-08T12:49:05.826Z,12.30
2023-04-08T12:51:34.860Z,12.40
2023-04-08T12:54:04.429Z,12.40
2023-04-08T12:56:34.076Z,12.50
2023-04-08T12:59:02.713Z,12.40
2023-04-08T13:01:31.155Z,12.70
2023-04-08T13:03:59.584Z,13.00
2023-04-08T13:06:28.258Z,13.40
2023-04-08T13:08:56.532Z,13.60
2023-04-08T13:11:24.506Z,13.20
2023-04-08T13:13:52.657Z,13.00
2023-04-08T13:16:20.647Z,13.00
2023-04-08T13:18:48.594Z,12.90
2023-04-08T13:21:16.650Z,13.00
2023-04-08T13:23:44.433Z,13.00
2023-04-08T13:26:12.327Z,12.90
2023-04-08T13:28:50.113Z,13.00
2023-04-08T13:31:22.272Z,13.30
2023-04-08T13:33:50.060Z,13.20
2023-04-08T13:36:18.103Z,13.30
2023-04-08T13:38:46.301Z,13.10
2023-04-08T13:41:14.254Z,13.00
2023-04-08T13:43:42.118Z,12.90
2023-04-08T13:46:10.486Z,13.10
2023-04-08T13:48:39.868Z,13.00
2023-04-08T13:51:08.544Z,12.70
2023-04-08T13:53:36.482Z,12.70
2023-04-08T13:56:06.531Z,12.80
2023-04-08T13:58:34.680Z,12.70
2023-04-08T14:01:02.906Z,12.50
2023-04-08T14:03:31.002Z,12.50
2023-04-08T14:06:01.539Z,12.50
2023-04-08T14:08:29.900Z,12.50
2023-04-08T14:10:58.707Z,12.40
2023-04-08T14:13:26.684Z,12.30
2023-04-08T14:15:58.457Z,12.30
2023-04-08T14:18:26.626Z,12.30
2023-04-08T14:20:54.596Z,12.50
2023-04-08T14:23:22.630Z,12.60
2023-04-08T14:25:50.592Z,12.40
2023-04-08T14:28:18.941Z,12.40
2023-04-08T14:30:47.858Z,12.40
2023-04-08T14:33:15.566Z,12.20
2023-04-08T14:35:43.502Z,12.20
2023-04-08T14:38:11.471Z,12.20
2023-04-08T14:40:39.739Z,12.30
2023-04-08T14:43:08.120Z,12.40
2023-04-08T14:45:36.223Z,12.30
2023-04-08T14:48:04.457Z,12.30
2023-04-08T14:50:32.598Z,12.00
2023-04-08T14:53:00.498Z,12.00
2023-04-08T14:55:30.120Z,11.90
2023-04-08T14:58:00.513Z,11.80
2023-04-08T15:00:28.990Z,11.90
2023-04-08T15:02:57.138Z,12.00
2023-04-08T15:05:25.272Z,12.10
2023-04-08T15:07:53.870Z,12.10
2023-04-08T15:10:21.702Z,12.20
2023-04-08T15:12:49.494Z,12.10
2023-04-08T15:15:17.504Z,12.00
2023-04-08T15:17:45.146Z,12.10
2023-04-08T15:20:13.690Z,12.20
2023-04-08T15:22:41.739Z,12.10
2023-04-08T15:25:10.874Z,12.30
2023-04-08T15:27:39.180Z,12.30
2023-04-08T15:30:10.221Z,12.30
2023-04-08T15:32:41.519Z,12.40
2023-04-08T15:35:11.140Z,12.10
2023-04-08T15:37:38.986Z,12.00
2023-04-08T15:40:09.847Z,12.00
2023-04-08T15:42:38.056Z,12.10
2023-04-08T15:45:07.101Z,12.10
2023-04-08T15:47:35.389Z,12.10
2023-04-08T15:50:03.783Z,12.20
2023-04-08T15:52:33.160Z,12.20
2023-04-08T15:55:02.668Z,12.10
2023-04-08T15:57:32.425Z,11.90
2023-04-08T16:00:00.452Z,12.20
2023-04-08T16:02:28.816Z,12.20
2023-04-08T16:04:57.230Z,12.20
2023-04-08T16:07:25.377Z,12.20
2023-04-08T16:09:53.403Z,12.00
2023-04-08T16:12:21.225Z,11.80
2023-04-08T16:14:49.154Z,11.80
2023-04-08T16:17:17.600Z,11.90
2023-04-08T16:19:45.579Z,11.80
2023-04-08T16:22:13.642Z,11.80
2023-04-08T16:24:41.496Z,11.70
2023-04-08T16:27:09.698Z,11.70
2023-04-08T16:29:37.548Z,11.70
2023-04-08T16:32:05.437Z,11.70
2023-04-08T16:34:33.376Z,11.80
2023-04-08T16:37:01.516Z,11.60
2023-04-08T16:39:29.564Z,11.60
2023-04-08T16:41:57.426Z,11.70
2023-04-08T16:44:25.580Z,11.80
2023-04-08T16:46:53.311Z,11.70
2023-04-08T16:49:21.302Z,11.80
2023-04-08T16:51:49.308Z,11.70
2023-04-08T16:54:17.275Z,11.60
2023-04-08T16:56:45.808Z,11.70
2023-04-08T16:59:14.361Z,11.80
2023-04-08T17:01:42.191Z,11.70
2023-04-08T17:04:10.855Z,11.60
2023-04-08T17:06:42.290Z,11.60
2023-04-08T17:09:11.024Z,11.80
2023-04-08T17:11:38.961Z,12.00
2023-04-08T17:14:06.787Z,11.90
2023-04-08T17:16:34.662Z,12.00
2023-04-08T17:19:02.537Z,11.80
2023-04-08T17:21:31.382Z,11.60
2023-04-08T17:23:59.156Z,11.40
2023-04-08T17:26:28.353Z,11.30
2023-04-08T17:28:56.728Z,11.50
2023-04-08T17:31:24.725Z,11.50
2023-04-08T17:33:52.788Z,11.50
2023-04-08T17:36:21.135Z,11.30
2023-04-08T17:38:49.453Z,11.20
2023-04-08T17:41:29.889Z,11.30
2023-04-08T17:44:06.121Z,11.30
2023-04-08T17:46:34.127Z,11.40
2023-04-08T17:49:02.864Z,11.30
2023-04-08T17:51:32.076Z,11.30
2023-04-08T17:54:00.404Z,11.30
2023-04-08T17:56:28.419Z,11.20
2023-04-08T17:58:56.432Z,11.00
2023-04-08T18:01:24.586Z,10.90
2023-04-08T18:03:52.720Z,11.10
2023-04-08T18:06:21.077Z,11.10
2023-04-08T18:08:49.142Z,11.00
2023-04-08T18:11:17.186Z,11.00
2023-04-08T18:13:46.055Z,10.90
2023-04-08T18:16:20.781Z,11.00
2023-04-08T18:18:49.544Z,11.00
2023-04-08T18:21:22.314Z,10.90
2023-04-08T18:23:51.128Z,10.90
2023-04-08T18:26:19.351Z,10.90
2023-04-08T18:28:47.474Z,11.00
2023-04-08T18:31:15.708Z,10.90
2023-04-08T18:33:43.804Z,10.90
2023-04-08T18:36:14.049Z,10.90
2023-04-08T18:38:42.264Z,10.90
2023-04-08T18:41:10.313Z,10.80
2023-04-08T18:43:38.644Z,10.60
2023-04-08T18:46:06.642Z,10.70
2023-04-08T18:48:34.504Z,10.70
2023-04-08T18:51:02.336Z,10.70
2023-04-08T18:53:30.914Z,10.80
2023-04-08T18:55:58.507Z,10.80
2023-04-08T18:58:27.459Z,10.80
2023-04-08T19:00:55.258Z,10.80
2023-04-08T19:03:23.443Z,10.70
2023-04-08T19:05:51.793Z,10.60
2023-04-08T19:08:19.474Z,10.80
2023-04-08T19:10:47.443Z,10.80
2023-04-08T19:13:15.303Z,10.80
2023-04-08T19:15:43.383Z,10.70
2023-04-08T19:18:11.212Z,10.70
2023-04-08T19:20:39.763Z,10.70
2023-04-08T19:23:07.643Z,10.70
2023-04-08T19:25:36.607Z,10.60
2023-04-08T19:28:06.149Z,10.60
2023-04-08T19:30:39.175Z,10.60
2023-04-08T19:33:08.964Z,10.60
2023-04-08T19:35:37.541Z,10.60
2023-04-08T19:38:06.023Z,10.50
2023-04-08T19:40:33.768Z,10.60
2023-04-08T19:43:01.434Z,10.60
2023-04-08T19:45:29.277Z,10.60
2023-04-08T19:47:57.247Z,10.50
2023-04-08T19:50:25.695Z,10.60
2023-04-08T19:52:53.675Z,10.70
2023-04-08T19:55:21.977Z,10.60
2023-04-08T19:57:51.856Z,10.60
2023-04-08T20:00:20.235Z,10.40
2023-04-08T20:02:48.635Z,10.50
2023-04-08T20:05:17.599Z,10.50
2023-04-08T20:07:45.216Z,10.40
2023-04-08T20:10:13.554Z,10.40
2023-04-08T20:12:41.656Z,10.40
2023-04-08T20:15:23.045Z,10.40
2023-04-08T20:17:53.944Z,10.40
2023-04-08T20:20:21.984Z,10.50
2023-04-08T20:22:49.752Z,10.40
2023-04-08T20:25:17.925Z,10.30
2023-04-08T20:27:45.825Z,10.30
2023-04-08T20:30:13.778Z,10.40
2023-04-08T20:32:41.550Z,10.50
2023-04-08T20:35:09.804Z,10.30
2023-04-08T20:37:38.059Z,10.40
2023-04-08T20:40:07.633Z,10.30
2023-04-08T20:42:35.794Z,10.30
2023-04-08T20:45:03.902Z,10.40
2023-04-08T20:47:31.719Z,10.30
2023-04-08T20:49:59.965Z,10.30
2023-04-08T20:52:27.796Z,10.30
2023-04-08T20:54:55.574Z,10.20
2023-04-08T20:57:23.583Z,10.40
2023-04-08T20:59:51.531Z,10.40
2023-04-08T21:02:21.769Z,10.40
2023-04-08T21:04:50.016Z,10.40
2023-04-08T21:07:18.378Z,10.20
2023-04-08T21:09:48.725Z,10.10
2023-04-08T21:12:18.846Z,10.00
2023-04-08T21:14:47.405Z,10.00
2023-04-08T21:17:15.383Z,10.00
2023-04-08T21:19:48.452Z,10.00
2023-04-08T21:22:18.374Z,10.00
2023-04-08T21:24:46.146Z,10.00
2023-04-08T21:27:13.787Z,10.00
2023-04-08T21:29:41.638Z,9.90
2023-04-08T21:32:09.733Z,10.00
2023-04-08T21:34:37.559Z,10.00
2023-04-08T21:37:05.993Z,10.00
2023-04-08T21:39:33.736Z,10.00
2023-04-08T21:42:01.704Z,10.00
2023-04-08T21:44:29.812Z,9.80
2023-04-08T21:46:59.730Z,9.70
2023-04-08T21:49:29.974Z,9.70
2023-04-08T21:51:58.157Z,9.80
2023-04-08T21:54:25.951Z,9.80
2023-04-08T21:56:53.704Z,9.70
2023-04-08T21:59:21.456Z,9.70
2023-04-08T22:01:49.634Z,9.60
2023-04-08T22:04:19.941Z,9.60
2023-04-08T22:06:51.376Z,9.60
2023-04-08T22:09:19.674Z,9.60
2023-04-08T22:11:49.897Z,9.60
2023-04-08T22:14:18.206Z,9.70
2023-04-08T22:16:46.158Z,9.70
2023-04-08T22:19:14.344Z,9.60
2023-04-08T22:21:42.289Z,9.50
2023-04-08T22:24:10.022Z,9.60
2023-04-08T22:26:37.786Z,9.60
2023-04-08T22:29:05.826Z,9.50
2023-04-08T22:31:33.512Z,9.70
2023-04-08T22:34:01.259Z,9.70
2023-04-08T22:36:29.201Z,9.70
2023-04-08T22:38:57.005Z,9.70
2023-04-08T22:41:25.877Z,9.70
2023-04-08T22:43:53.712Z,9.60
2023-04-08T22:46:21.467Z,9.50
2023-04-08T22:48:49.830Z,9.50
2023-04-08T22:51:17.653Z,9.50
2023-04-08T22:53:45.642Z,9.40
2023-04-08T22:56:13.708Z,9.40
2023-04-08T22:58:41.782Z,9.40
2023-04-08T23:01:20.937Z,9.30
2023-04-08T23:03:50.100Z,9.20
2023-04-08T23:06:17.984Z,9.30
2023-04-08T23:08:48.731Z,9.30
2023-04-08T23:11:16.686Z,9.30
2023-04-08T23:13:44.433Z,9.10
2023-04-08T23:16:12.263Z,9.10
2023-04-08T23:18:39.970Z,9.00
2023-04-08T23:21:08.063Z,8.90
2023-04-08T23:23:36.061Z,8.80
2023-04-08T23:26:03.945Z,8.80
2023-04-08T23:28:31.737Z,8.80
2023-04-08T23:30:59.481Z,8.80
2023-04-08T23:33:27.438Z,8.80
2023-04-08T23:35:55.289Z,8.70
2023-04-08T23:38:23.233Z,8.60
2023-04-08T23:40:51.550Z,8.50
2023-04-08T23:43:19.408Z,8.50
2023-04-08T23:45:47.115Z,8.50
2023-04-08T23:48:14.888Z,8.40
2023-04-08T23:50:42.727Z,8.40
2023-04-08T23:53:10.668Z,8.30
2023-04-08T23:55:38.417Z,8.20
2023-04-08T23:58:06.203Z,8.10
